TimeCDT,TemperatureF,Dew PointF,Humidity,Sea Level PressureIn,VisibilityMPH,Wind Direction,Wind SpeedMPH,Gust SpeedMPH,PrecipitationIn,Events,Conditions,WindDirDegrees,DateUTC
12:15 AM,62.6,58.6,87,30.16,10.0,Calm,Calm,-,N/A,,Clear,0,2013-09-05 05:15:00
12:35 AM,62.6,58.5,86,30.16,10.0,Calm,Calm,-,N/A,,Clear,0,2013-09-05 05:35:00
12:55 AM,62.6,58.3,86,30.17,10.0,Calm,Calm,-,N/A,,Clear,0,2013-09-05 05:55:00
1:15 AM,63.7,58.3,83,30.17,10.0,SW,4.6,-,N/A,,Clear,230,2013-09-05 06:15:00
1:35 AM,63.9,59.0,84,30.17,10.0,WSW,4.6,-,N/A,,Clear,240,2013-09-05 06:35:00
1:55 AM,63.5,58.6,84,30.17,10.0,SW,4.6,-,N/A,,Clear,230,2013-09-05 06:55:00
2:15 AM,63.7,59.0,85,30.17,10.0,WSW,5.8,-,N/A,,Clear,240,2013-09-05 07:15:00
2:35 AM,63.5,58.5,84,30.17,10.0,WSW,4.6,-,N/A,,Clear,240,2013-09-05 07:35:00
2:55 AM,62.4,58.1,86,30.17,10.0,WSW,3.5,-,N/A,,Clear,250,2013-09-05 07:55:00
3:15 AM,61.2,57.7,88,30.17,10.0,Calm,Calm,-,N/A,,Clear,0,2013-09-05 08:15:00
3:35 AM,60.8,57.4,88,30.17,10.0,Calm,Calm,-,N/A,,Clear,0,2013-09-05 08:35:00
3:55 AM,61.3,57.9,89,30.18,10.0,Calm,Calm,-,N/A,,Clear,0,2013-09-05 08:55:00
4:15 AM,62.1,59.0,90,30.18,10.0,Calm,Calm,-,N/A,,Clear,0,2013-09-05 09:15:00
4:35 AM,62.6,59.0,88,30.18,10.0,Calm,Calm,-,N/A,,Clear,0,2013-09-05 09:35:00
4:55 AM,62.2,59.0,89,30.18,10.0,Calm,Calm,-,N/A,,Clear,0,2013-09-05 09:55:00
5:15 AM,62.6,59.5,90,30.18,10.0,Calm,Calm,-,N/A,,Clear,0,2013-09-05 10:15:00
5:35 AM,62.6,59.4,89,30.18,10.0,Calm,Calm,-,N/A,,Clear,0,2013-09-05 10:35:00
5:55 AM,62.1,59.0,90,30.18,10.0,Calm,Calm,-,N/A,,Clear,0,2013-09-05 10:55:00
6:15 AM,61.7,59.0,91,30.19,10.0,Calm,Calm,-,N/A,,Clear,0,2013-09-05 11:15:00
6:35 AM,61.7,59.2,91,30.19,10.0,Calm,Calm,-,N/A,,Clear,0,2013-09-05 11:35:00
6:55 AM,62.1,59.2,90,30.20,10.0,Calm,Calm,-,N/A,,Clear,0,2013-09-05 11:55:00
7:15 AM,63.0,59.9,90,30.19,10.0,Calm,Calm,-,N/A,,Clear,0,2013-09-05 12:15:00
7:35 AM,64.4,60.8,88,30.20,10.0,Calm,Calm,-,N/A,,Clear,0,2013-09-05 12:35:00
7:55 AM,66.2,61.9,86,30.20,10.0,Calm,Calm,-,N/A,,Clear,0,2013-09-05 12:55:00
8:15 AM,68.4,63.0,83,30.20,10.0,Calm,Calm,-,N/A,,Clear,0,2013-09-05 13:15:00
8:35 AM,70.9,63.0,76,30.21,10.0,Calm,Calm,-,N/A,,Clear,0,2013-09-05 13:35:00
8:55 AM,74.5,62.2,66,30.21,10.0,Calm,Calm,-,N/A,,Clear,0,2013-09-05 13:55:00
9:15 AM,77.0,62.2,60,30.21,10.0,Calm,Calm,-,N/A,,Clear,0,2013-09-05 14:15:00
9:35 AM,78.1,62.6,59,30.22,10.0,Calm,Calm,-,N/A,,Clear,0,2013-09-05 14:35:00
9:55 AM,81.3,62.2,52,30.22,10.0,Calm,Calm,-,N/A,,Clear,0,2013-09-05 14:55:00
10:15 AM,82.2,58.6,45,30.23,10.0,Calm,Calm,-,N/A,,Clear,0,2013-09-05 15:15:00
10:35 AM,83.3,57.7,42,30.23,10.0,Calm,Calm,-,N/A,,Clear,0,2013-09-05 15:35:00
10:55 AM,84.9,57.9,40,30.23,10.0,Calm,Calm,-,N/A,,Clear,0,2013-09-05 15:55:00
11:15 AM,86.2,52.7,32,30.23,10.0,Calm,Calm,-,N/A,,Clear,0,2013-09-05 16:15:00
11:35 AM,86.2,57.6,38,30.23,10.0,Calm,Calm,-,N/A,,Clear,0,2013-09-05 16:35:00
11:55 AM,86.5,57.7,37,30.23,10.0,Calm,Calm,-,N/A,,Clear,0,2013-09-05 16:55:00
12:15 PM,86.9,57.0,36,30.23,10.0,ESE,3.5,-,N/A,,Clear,110,2013-09-05 17:15:00
12:35 PM,87.8,58.1,36,30.22,10.0,Calm,Calm,-,N/A,,Clear,0,2013-09-05 17:35:00
12:55 PM,87.6,59.9,39,30.21,10.0,SE,5.8,-,N/A,,Clear,140,2013-09-05 17:55:00
1:15 PM,88.5,62.8,42,30.21,10.0,SE,5.8,-,N/A,,Clear,130,2013-09-05 18:15:00
1:35 PM,88.5,62.2,41,30.21,10.0,ESE,5.8,-,N/A,,Clear,110,2013-09-05 18:35:00
1:55 PM,88.0,62.4,42,30.20,10.0,SE,4.6,-,N/A,,Clear,140,2013-09-05 18:55:00
2:15 PM,88.2,62.4,42,30.20,10.0,Calm,Calm,-,N/A,,Clear,0,2013-09-05 19:15:00
2:35 PM,88.3,63.0,43,30.19,10.0,SE,4.6,-,N/A,,Clear,130,2013-09-05 19:35:00
2:55 PM,89.1,63.1,42,30.18,10.0,SE,6.9,-,N/A,,Clear,130,2013-09-05 19:55:00
3:15 PM,88.9,63.0,42,30.18,10.0,Calm,Calm,-,N/A,,Clear,0,2013-09-05 20:15:00
3:35 PM,88.7,63.0,42,30.18,10.0,Calm,Calm,-,N/A,,Clear,0,2013-09-05 20:35:00
3:55 PM,89.1,63.9,43,30.17,10.0,SSE,5.8,-,N/A,,Clear,150,2013-09-05 20:55:00
4:15 PM,88.7,63.5,43,30.17,10.0,SSE,3.5,-,N/A,,Clear,150,2013-09-05 21:15:00
4:35 PM,88.7,63.9,43,30.17,10.0,SE,4.6,-,N/A,,Clear,140,2013-09-05 21:35:00
4:55 PM,88.2,63.9,44,30.17,10.0,SE,5.8,-,N/A,,Clear,140,2013-09-05 21:55:00
5:15 PM,88.0,64.2,45,30.17,10.0,SSE,5.8,-,N/A,,Clear,150,2013-09-05 22:15:00
5:35 PM,87.8,63.9,45,30.17,10.0,SSE,5.8,-,N/A,,Scattered Clouds,150,2013-09-05 22:35:00
5:55 PM,87.8,64.6,46,30.17,10.0,SSE,3.5,-,N/A,,Mostly Cloudy,150,2013-09-05 22:55:00
6:15 PM,85.6,65.1,50,30.17,10.0,SSE,3.5,-,N/A,,Scattered Clouds,160,2013-09-05 23:15:00
6:35 PM,84.7,66.7,55,30.16,10.0,Calm,Calm,-,N/A,,Scattered Clouds,0,2013-09-05 23:35:00
6:55 PM,82.9,67.6,60,30.16,10.0,Calm,Calm,-,N/A,,Clear,0,2013-09-05 23:55:00
7:15 PM,81.0,68.4,65,30.16,10.0,SSE,3.5,-,N/A,,Clear,150,2013-09-06 00:15:00
7:35 PM,77.7,68.4,73,30.17,10.0,South,3.5,-,N/A,,Clear,170,2013-09-06 00:35:00
7:55 PM,76.1,68.0,76,30.17,10.0,SSE,4.6,-,N/A,,Clear,150,2013-09-06 00:55:00
8:15 PM,74.3,67.3,79,30.17,10.0,South,4.6,-,N/A,,Clear,170,2013-09-06 01:15:00
8:35 PM,73.0,66.7,81,30.18,10.0,South,3.5,-,N/A,,Clear,170,2013-09-06 01:35:00
8:55 PM,72.5,66.4,81,30.18,10.0,South,4.6,-,N/A,,Clear,180,2013-09-06 01:55:00
9:15 PM,71.8,66.2,83,30.19,10.0,South,4.6,-,N/A,,Clear,180,2013-09-06 02:15:00
9:35 PM,71.6,65.7,81,30.19,10.0,South,5.8,-,N/A,,Clear,180,2013-09-06 02:35:00
9:55 PM,70.7,65.3,83,30.19,10.0,South,4.6,-,N/A,,Clear,180,2013-09-06 02:55:00
10:15 PM,69.1,64.9,87,30.19,10.0,South,3.5,-,N/A,,Clear,170,2013-09-06 03:15:00
10:35 PM,69.1,64.6,86,30.19,10.0,Calm,Calm,-,N/A,,Clear,0,2013-09-06 03:35:00
10:55 PM,69.1,64.4,85,30.20,10.0,Calm,Calm,-,N/A,,Clear,0,2013-09-06 03:55:00
11:15 PM,66.9,63.5,89,30.20,10.0,ENE,4.6,-,N/A,,Clear,60,2013-09-06 04:15:00
11:35 PM,67.5,64.6,90,30.20,10.0,ESE,3.5,-,N/A,,Clear,120,2013-09-06 04:35:00
11:55 PM,66.9,63.9,90,30.20,10.0,East,4.6,-,N/A,,Clear,80,2013-09-06 04:55:00